sensor_id;sensor_type;location;lat;lon;timestamp;P1;durP1;ratioP1;P2;durP2;ratioP2
11486;SDS011;10510;47.942;9.442;2022-09-16T00:00:25;11.02;;;8.45;;
11486;SDS011;10510;47.942;9.442;2022-09-16T00:02:26;10.95;;;7.47;;
11486;SDS011;10510;47.942;9.442;2022-09-16T00:04:27;12.70;;;7.93;;
11486;SDS011;10510;47.942;9.442;2022-09-16T00:06:28;13.82;;;8.55;;
11486;SDS011;10510;47.942;9.442;2022-09-16T00:08:29;13.57;;;7.43;;
11486;SDS011;10510;47.942;9.442;2022-09-16T00:10:31;12.27;;;8.00;;
11486;SDS011;10510;47.942;9.442;2022-09-16T00:12:31;11.77;;;7.60;;
11486;SDS011;10510;47.942;9.442;2022-09-16T00:14:31;10.02;;;7.53;;
11486;SDS011;10510;47.942;9.442;2022-09-16T00:16:31;12.65;;;7.60;;
11486;SDS011;10510;47.942;9.442;2022-09-16T00:18:32;16.05;;;7.60;;
11486;SDS011;10510;47.942;9.442;2022-09-16T00:20:32;13.93;;;7.05;;
11486;SDS011;10510;47.942;9.442;2022-09-16T00:22:32;11.50;;;7.57;;
11486;SDS011;10510;47.942;9.442;2022-09-16T00:24:33;10.88;;;7.07;;
11486;SDS011;10510;47.942;9.442;2022-09-16T00:26:33;9.93;;;7.00;;
11486;SDS011;10510;47.942;9.442;2022-09-16T00:28:33;10.32;;;7.85;;
11486;SDS011;10510;47.942;9.442;2022-09-16T00:30:34;11.85;;;7.57;;
11486;SDS011;10510;47.942;9.442;2022-09-16T00:32:34;14.60;;;8.43;;
11486;SDS011;10510;47.942;9.442;2022-09-16T00:34:35;9.32;;;7.20;;
11486;SDS011;10510;47.942;9.442;2022-09-16T00:36:35;8.32;;;7.03;;
11486;SDS011;10510;47.942;9.442;2022-09-16T00:38:35;9.10;;;7.50;;
11486;SDS011;10510;47.942;9.442;2022-09-16T00:40:42;8.80;;;6.80;;
11486;SDS011;10510;47.942;9.442;2022-09-16T00:42:47;9.15;;;6.35;;
11486;SDS011;10510;47.942;9.442;2022-09-16T00:47:03;8.73;;;7.22;;
11486;SDS011;10510;47.942;9.442;2022-09-16T00:49:14;10.43;;;6.75;;
11486;SDS011;10510;47.942;9.442;2022-09-16T00:51:17;9.45;;;6.82;;
11486;SDS011;10510;47.942;9.442;2022-09-16T00:53:21;9.73;;;7.28;;
11486;SDS011;10510;47.942;9.442;2022-09-16T00:55:26;10.75;;;7.40;;
11486;SDS011;10510;47.942;9.442;2022-09-16T00:57:29;17.10;;;7.75;;
11486;SDS011;10510;47.942;9.442;2022-09-16T00:59:33;12.13;;;8.35;;
11486;SDS011;10510;47.942;9.442;2022-09-16T01:01:36;16.73;;;8.73;;
11486;SDS011;10510;47.942;9.442;2022-09-16T01:03:43;15.02;;;8.45;;
11486;SDS011;10510;47.942;9.442;2022-09-16T01:05:46;10.88;;;7.55;;
11486;SDS011;10510;47.942;9.442;2022-09-16T01:07:47;10.85;;;8.02;;
11486;SDS011;10510;47.942;9.442;2022-09-16T01:09:50;13.15;;;8.38;;
11486;SDS011;10510;47.942;9.442;2022-09-16T01:11:50;11.38;;;7.65;;
11486;SDS011;10510;47.942;9.442;2022-09-16T01:13:51;9.70;;;7.57;;
11486;SDS011;10510;47.942;9.442;2022-09-16T01:16:53;12.18;;;8.43;;
11486;SDS011;10510;47.942;9.442;2022-09-16T01:18:37;12.93;;;8.07;;
11486;SDS011;10510;47.942;9.442;2022-09-16T01:21:05;13.52;;;7.43;;
11486;SDS011;10510;47.942;9.442;2022-09-16T01:23:26;10.93;;;7.45;;
11486;SDS011;10510;47.942;9.442;2022-09-16T01:34:42;12.95;;;8.65;;
11486;SDS011;10510;47.942;9.442;2022-09-16T01:41:54;16.05;;;8.23;;
11486;SDS011;10510;47.942;9.442;2022-09-16T01:44:22;13.10;;;7.93;;
11486;SDS011;10510;47.942;9.442;2022-09-16T01:46:38;10.23;;;7.45;;
11486;SDS011;10510;47.942;9.442;2022-09-16T01:48:55;11.25;;;8.52;;
11486;SDS011;10510;47.942;9.442;2022-09-16T01:51:22;17.10;;;8.10;;
11486;SDS011;10510;47.942;9.442;2022-09-16T01:53:35;14.63;;;9.38;;
11486;SDS011;10510;47.942;9.442;2022-09-16T01:55:47;15.10;;;8.63;;
11486;SDS011;10510;47.942;9.442;2022-09-16T01:57:57;13.90;;;9.35;;
11486;SDS011;10510;47.942;9.442;2022-09-16T02:02:08;20.25;;;10.52;;
11486;SDS011;10510;47.942;9.442;2022-09-16T02:04:18;14.95;;;10.43;;
11486;SDS011;10510;47.942;9.442;2022-09-16T02:06:23;13.38;;;9.40;;
11486;SDS011;10510;47.942;9.442;2022-09-16T02:08:27;14.63;;;9.55;;
11486;SDS011;10510;47.942;9.442;2022-09-16T02:10:30;13.77;;;9.25;;
11486;SDS011;10510;47.942;9.442;2022-09-16T02:12:36;16.13;;;10.05;;
11486;SDS011;10510;47.942;9.442;2022-09-16T02:14:40;15.07;;;9.40;;
11486;SDS011;10510;47.942;9.442;2022-09-16T02:16:45;13.63;;;9.30;;
11486;SDS011;10510;47.942;9.442;2022-09-16T02:18:51;15.63;;;9.80;;
11486;SDS011;10510;47.942;9.442;2022-09-16T02:20:54;16.17;;;9.50;;
11486;SDS011;10510;47.942;9.442;2022-09-16T02:23:00;15.32;;;9.70;;
11486;SDS011;10510;47.942;9.442;2022-09-16T02:25:06;18.05;;;9.88;;
11486;SDS011;10510;47.942;9.442;2022-09-16T02:27:09;14.93;;;9.63;;
11486;SDS011;10510;47.942;9.442;2022-09-16T02:29:15;17.77;;;10.50;;
11486;SDS011;10510;47.942;9.442;2022-09-16T02:31:21;16.00;;;9.93;;
11486;SDS011;10510;47.942;9.442;2022-09-16T02:33:28;13.73;;;9.90;;
11486;SDS011;10510;47.942;9.442;2022-09-16T02:35:34;19.00;;;10.23;;
11486;SDS011;10510;47.942;9.442;2022-09-16T02:37:41;17.67;;;10.85;;
11486;SDS011;10510;47.942;9.442;2022-09-16T02:39:52;13.48;;;10.10;;
11486;SDS011;10510;47.942;9.442;2022-09-16T02:41:57;15.07;;;10.48;;
11486;SDS011;10510;47.942;9.442;2022-09-16T02:43:58;15.13;;;10.65;;
11486;SDS011;10510;47.942;9.442;2022-09-16T02:48:11;20.60;;;11.07;;
11486;SDS011;10510;47.942;9.442;2022-09-16T02:50:33;24.42;;;11.25;;
11486;SDS011;10510;47.942;9.442;2022-09-16T02:52:55;16.77;;;11.32;;
11486;SDS011;10510;47.942;9.442;2022-09-16T02:57:19;14.68;;;10.38;;
11486;SDS011;10510;47.942;9.442;2022-09-16T02:59:20;18.05;;;10.23;;
11486;SDS011;10510;47.942;9.442;2022-09-16T03:01:21;17.88;;;10.02;;
11486;SDS011;10510;47.942;9.442;2022-09-16T03:03:23;20.92;;;11.40;;
11486;SDS011;10510;47.942;9.442;2022-09-16T03:05:27;19.48;;;11.32;;
11486;SDS011;10510;47.942;9.442;2022-09-16T03:07:28;13.80;;;10.25;;
11486;SDS011;10510;47.942;9.442;2022-09-16T03:09:29;13.80;;;10.50;;
11486;SDS011;10510;47.942;9.442;2022-09-16T03:13:36;17.07;;;10.40;;
11486;SDS011;10510;47.942;9.442;2022-09-16T03:18:19;15.27;;;10.57;;
11486;SDS011;10510;47.942;9.442;2022-09-16T03:30:05;19.10;;;10.50;;
11486;SDS011;10510;47.942;9.442;2022-09-16T03:32:23;16.63;;;10.03;;
11486;SDS011;10510;47.942;9.442;2022-09-16T03:34:30;14.65;;;9.88;;
11486;SDS011;10510;47.942;9.442;2022-09-16T03:36:36;14.93;;;10.13;;
11486;SDS011;10510;47.942;9.442;2022-09-16T03:38:42;18.55;;;10.27;;
11486;SDS011;10510;47.942;9.442;2022-09-16T03:40:43;18.90;;;10.30;;
11486;SDS011;10510;47.942;9.442;2022-09-16T03:42:46;15.73;;;10.27;;
11486;SDS011;10510;47.942;9.442;2022-09-16T03:44:47;17.75;;;10.07;;
11486;SDS011;10510;47.942;9.442;2022-09-16T03:46:47;15.77;;;10.02;;
11486;SDS011;10510;47.942;9.442;2022-09-16T03:48:47;14.27;;;9.82;;
11486;SDS011;10510;47.942;9.442;2022-09-16T03:50:48;16.52;;;10.02;;
11486;SDS011;10510;47.942;9.442;2022-09-16T03:52:48;13.57;;;9.07;;
11486;SDS011;10510;47.942;9.442;2022-09-16T03:54:49;14.27;;;9.15;;
11486;SDS011;10510;47.942;9.442;2022-09-16T03:56:49;13.52;;;9.27;;
11486;SDS011;10510;47.942;9.442;2022-09-16T03:58:50;13.98;;;9.45;;
11486;SDS011;10510;47.942;9.442;2022-09-16T04:00:50;15.50;;;10.23;;
11486;SDS011;10510;47.942;9.442;2022-09-16T04:02:51;17.48;;;9.80;;
11486;SDS011;10510;47.942;9.442;2022-09-16T04:04:51;14.02;;;9.68;;
11486;SDS011;10510;47.942;9.442;2022-09-16T04:06:52;13.20;;;9.75;;
11486;SDS011;10510;47.942;9.442;2022-09-16T04:08:52;13.40;;;9.65;;
11486;SDS011;10510;47.942;9.442;2022-09-16T04:10:56;22.83;;;11.00;;
11486;SDS011;10510;47.942;9.442;2022-09-16T04:13:01;19.23;;;10.05;;
11486;SDS011;10510;47.942;9.442;2022-09-16T04:15:01;23.10;;;10.70;;
11486;SDS011;10510;47.942;9.442;2022-09-16T04:17:02;16.48;;;9.82;;
11486;SDS011;10510;47.942;9.442;2022-09-16T04:19:02;13.80;;;9.75;;
11486;SDS011;10510;47.942;9.442;2022-09-16T04:21:03;13.43;;;9.15;;
11486;SDS011;10510;47.942;9.442;2022-09-16T04:23:04;14.73;;;9.10;;
11486;SDS011;10510;47.942;9.442;2022-09-16T04:25:04;16.85;;;9.77;;
11486;SDS011;10510;47.942;9.442;2022-09-16T04:27:05;13.43;;;9.27;;
11486;SDS011;10510;47.942;9.442;2022-09-16T04:29:06;15.88;;;8.93;;
11486;SDS011;10510;47.942;9.442;2022-09-16T04:31:08;14.40;;;9.45;;
11486;SDS011;10510;47.942;9.442;2022-09-16T04:33:10;14.07;;;8.30;;
11486;SDS011;10510;47.942;9.442;2022-09-16T04:35:10;14.88;;;8.80;;
11486;SDS011;10510;47.942;9.442;2022-09-16T04:37:11;14.90;;;8.93;;
11486;SDS011;10510;47.942;9.442;2022-09-16T04:39:11;17.52;;;8.82;;
11486;SDS011;10510;47.942;9.442;2022-09-16T04:41:13;16.58;;;9.20;;
11486;SDS011;10510;47.942;9.442;2022-09-16T04:43:15;18.33;;;9.60;;
11486;SDS011;10510;47.942;9.442;2022-09-16T04:45:16;15.48;;;10.45;;
11486;SDS011;10510;47.942;9.442;2022-09-16T04:47:16;16.20;;;9.55;;
11486;SDS011;10510;47.942;9.442;2022-09-16T04:49:17;22.05;;;9.88;;
11486;SDS011;10510;47.942;9.442;2022-09-16T04:51:17;21.65;;;10.63;;
11486;SDS011;10510;47.942;9.442;2022-09-16T04:53:19;16.00;;;10.10;;
11486;SDS011;10510;47.942;9.442;2022-09-16T04:55:20;16.73;;;9.90;;
11486;SDS011;10510;47.942;9.442;2022-09-16T04:57:23;12.93;;;8.93;;
11486;SDS011;10510;47.942;9.442;2022-09-16T04:59:24;12.93;;;8.60;;
11486;SDS011;10510;47.942;9.442;2022-09-16T05:01:25;13.45;;;9.30;;
11486;SDS011;10510;47.942;9.442;2022-09-16T05:03:27;14.70;;;8.68;;
11486;SDS011;10510;47.942;9.442;2022-09-16T05:05:27;14.52;;;7.97;;
11486;SDS011;10510;47.942;9.442;2022-09-16T05:07:28;13.60;;;8.60;;
11486;SDS011;10510;47.942;9.442;2022-09-16T05:09:28;17.08;;;8.43;;
11486;SDS011;10510;47.942;9.442;2022-09-16T05:11:29;15.00;;;8.15;;
11486;SDS011;10510;47.942;9.442;2022-09-16T05:13:34;13.23;;;7.90;;
11486;SDS011;10510;47.942;9.442;2022-09-16T05:15:35;16.38;;;9.52;;
11486;SDS011;10510;47.942;9.442;2022-09-16T05:17:35;13.82;;;8.75;;
11486;SDS011;10510;47.942;9.442;2022-09-16T05:19:36;15.48;;;8.93;;
11486;SDS011;10510;47.942;9.442;2022-09-16T05:21:36;15.82;;;10.85;;
11486;SDS011;10510;47.942;9.442;2022-09-16T05:23:38;16.50;;;9.68;;
11486;SDS011;10510;47.942;9.442;2022-09-16T05:25:39;18.05;;;10.00;;
11486;SDS011;10510;47.942;9.442;2022-09-16T05:27:40;16.83;;;8.77;;
11486;SDS011;10510;47.942;9.442;2022-09-16T05:29:40;14.98;;;9.73;;
11486;SDS011;10510;47.942;9.442;2022-09-16T05:31:41;18.08;;;10.00;;
11486;SDS011;10510;47.942;9.442;2022-09-16T05:33:43;19.13;;;9.63;;
11486;SDS011;10510;47.942;9.442;2022-09-16T05:35:45;15.30;;;9.50;;
11486;SDS011;10510;47.942;9.442;2022-09-16T05:37:45;15.88;;;8.73;;
11486;SDS011;10510;47.942;9.442;2022-09-16T05:39:45;19.38;;;9.27;;
11486;SDS011;10510;47.942;9.442;2022-09-16T05:41:46;16.13;;;9.48;;
11486;SDS011;10510;47.942;9.442;2022-09-16T05:43:47;16.90;;;10.00;;
11486;SDS011;10510;47.942;9.442;2022-09-16T05:45:51;13.27;;;8.73;;
11486;SDS011;10510;47.942;9.442;2022-09-16T05:47:52;17.40;;;10.00;;
11486;SDS011;10510;47.942;9.442;2022-09-16T05:49:52;18.27;;;9.18;;
11486;SDS011;10510;47.942;9.442;2022-09-16T05:51:53;20.85;;;9.73;;
11486;SDS011;10510;47.942;9.442;2022-09-16T05:53:54;15.93;;;9.07;;
11486;SDS011;10510;47.942;9.442;2022-09-16T05:57:54;15.43;;;9.32;;
11486;SDS011;10510;47.942;9.442;2022-09-16T05:59:55;15.77;;;9.52;;
11486;SDS011;10510;47.942;9.442;2022-09-16T06:01:55;15.43;;;9.27;;
11486;SDS011;10510;47.942;9.442;2022-09-16T06:03:56;21.25;;;10.77;;
11486;SDS011;10510;47.942;9.442;2022-09-16T06:06:03;17.65;;;9.65;;
11486;SDS011;10510;47.942;9.442;2022-09-16T06:08:06;14.85;;;8.82;;
11486;SDS011;10510;47.942;9.442;2022-09-16T06:10:06;14.20;;;9.23;;
11486;SDS011;10510;47.942;9.442;2022-09-16T06:12:07;15.90;;;9.15;;
11486;SDS011;10510;47.942;9.442;2022-09-16T06:14:09;14.50;;;8.95;;
11486;SDS011;10510;47.942;9.442;2022-09-16T06:16:11;15.45;;;9.57;;
11486;SDS011;10510;47.942;9.442;2022-09-16T06:18:13;16.50;;;9.35;;
11486;SDS011;10510;47.942;9.442;2022-09-16T06:20:15;16.45;;;8.23;;
11486;SDS011;10510;47.942;9.442;2022-09-16T06:22:15;16.70;;;9.52;;
11486;SDS011;10510;47.942;9.442;2022-09-16T06:24:16;16.70;;;8.23;;
11486;SDS011;10510;47.942;9.442;2022-09-16T06:26:19;13.00;;;8.00;;
11486;SDS011;10510;47.942;9.442;2022-09-16T06:28:21;15.70;;;10.13;;
11486;SDS011;10510;47.942;9.442;2022-09-16T06:30:21;16.40;;;9.35;;
11486;SDS011;10510;47.942;9.442;2022-09-16T06:32:21;19.98;;;10.00;;
11486;SDS011;10510;47.942;9.442;2022-09-16T06:34:22;13.93;;;9.07;;
11486;SDS011;10510;47.942;9.442;2022-09-16T06:36:27;13.40;;;8.85;;
11486;SDS011;10510;47.942;9.442;2022-09-16T06:38:29;24.13;;;10.45;;
11486;SDS011;10510;47.942;9.442;2022-09-16T06:40:30;16.85;;;9.60;;
11486;SDS011;10510;47.942;9.442;2022-09-16T06:42:30;14.95;;;9.85;;
11486;SDS011;10510;47.942;9.442;2022-09-16T06:44:30;18.25;;;10.25;;
11486;SDS011;10510;47.942;9.442;2022-09-16T06:46:31;20.30;;;10.65;;
11486;SDS011;10510;47.942;9.442;2022-09-16T06:48:31;18.42;;;10.73;;
11486;SDS011;10510;47.942;9.442;2022-09-16T06:50:35;14.82;;;9.50;;
11486;SDS011;10510;47.942;9.442;2022-09-16T06:52:35;14.60;;;9.25;;
11486;SDS011;10510;47.942;9.442;2022-09-16T06:54:35;15.68;;;10.38;;
11486;SDS011;10510;47.942;9.442;2022-09-16T06:56:36;20.88;;;10.32;;
11486;SDS011;10510;47.942;9.442;2022-09-16T06:58:39;14.65;;;10.13;;
11486;SDS011;10510;47.942;9.442;2022-09-16T07:00:41;21.35;;;11.38;;
11486;SDS011;10510;47.942;9.442;2022-09-16T07:02:41;18.75;;;11.43;;
11486;SDS011;10510;47.942;9.442;2022-09-16T07:04:41;18.20;;;11.15;;
11486;SDS011;10510;47.942;9.442;2022-09-16T07:06:42;19.52;;;11.70;;
11486;SDS011;10510;47.942;9.442;2022-09-16T07:08:42;19.20;;;11.23;;
11486;SDS011;10510;47.942;9.442;2022-09-16T07:10:43;18.73;;;10.88;;
11486;SDS011;10510;47.942;9.442;2022-09-16T07:12:43;18.08;;;10.40;;
11486;SDS011;10510;47.942;9.442;2022-09-16T07:14:43;23.85;;;11.02;;
11486;SDS011;10510;47.942;9.442;2022-09-16T07:16:44;17.60;;;10.23;;
11486;SDS011;10510;47.942;9.442;2022-09-16T07:18:44;17.77;;;11.95;;
11486;SDS011;10510;47.942;9.442;2022-09-16T07:20:47;15.95;;;11.00;;
11486;SDS011;10510;47.942;9.442;2022-09-16T07:22:47;15.02;;;10.68;;
11486;SDS011;10510;47.942;9.442;2022-09-16T07:24:49;19.38;;;11.95;;
11486;SDS011;10510;47.942;9.442;2022-09-16T07:26:49;21.83;;;11.98;;
11486;SDS011;10510;47.942;9.442;2022-09-16T07:28:50;19.40;;;12.07;;
11486;SDS011;10510;47.942;9.442;2022-09-16T07:30:51;16.60;;;11.13;;
11486;SDS011;10510;47.942;9.442;2022-09-16T07:32:51;14.38;;;10.57;;
11486;SDS011;10510;47.942;9.442;2022-09-16T07:34:52;17.92;;;11.80;;
11486;SDS011;10510;47.942;9.442;2022-09-16T07:36:52;16.35;;;10.90;;
11486;SDS011;10510;47.942;9.442;2022-09-16T07:38:53;17.48;;;11.73;;
11486;SDS011;10510;47.942;9.442;2022-09-16T07:41:02;22.17;;;11.95;;
11486;SDS011;10510;47.942;9.442;2022-09-16T07:43:07;18.40;;;11.07;;
11486;SDS011;10510;47.942;9.442;2022-09-16T07:45:07;21.85;;;10.73;;
11486;SDS011;10510;47.942;9.442;2022-09-16T07:47:08;13.98;;;9.40;;
11486;SDS011;10510;47.942;9.442;2022-09-16T07:49:10;13.30;;;9.70;;
11486;SDS011;10510;47.942;9.442;2022-09-16T07:51:13;15.75;;;10.20;;
11486;SDS011;10510;47.942;9.442;2022-09-16T07:53:14;13.50;;;9.80;;
11486;SDS011;10510;47.942;9.442;2022-09-16T07:55:14;17.58;;;9.73;;
11486;SDS011;10510;47.942;9.442;2022-09-16T07:57:16;15.45;;;9.27;;
11486;SDS011;10510;47.942;9.442;2022-09-16T07:59:17;14.40;;;10.13;;
11486;SDS011;10510;47.942;9.442;2022-09-16T08:01:18;11.68;;;9.05;;
11486;SDS011;10510;47.942;9.442;2022-09-16T08:03:19;13.27;;;9.38;;
11486;SDS011;10510;47.942;9.442;2022-09-16T08:05:19;12.45;;;8.63;;
11486;SDS011;10510;47.942;9.442;2022-09-16T08:07:19;10.75;;;8.20;;
11486;SDS011;10510;47.942;9.442;2022-09-16T08:09:19;13.82;;;8.43;;
11486;SDS011;10510;47.942;9.442;2022-09-16T08:11:22;13.68;;;8.80;;
11486;SDS011;10510;47.942;9.442;2022-09-16T08:13:22;12.27;;;8.27;;
11486;SDS011;10510;47.942;9.442;2022-09-16T08:15:23;14.30;;;8.45;;
11486;SDS011;10510;47.942;9.442;2022-09-16T08:17:24;15.25;;;9.23;;
11486;SDS011;10510;47.942;9.442;2022-09-16T08:19:25;12.60;;;8.85;;
11486;SDS011;10510;47.942;9.442;2022-09-16T08:21:26;12.27;;;8.57;;
11486;SDS011;10510;47.942;9.442;2022-09-16T08:23:28;12.48;;;8.25;;
11486;SDS011;10510;47.942;9.442;2022-09-16T08:25:28;14.55;;;8.88;;
11486;SDS011;10510;47.942;9.442;2022-09-16T08:27:28;11.52;;;8.80;;
11486;SDS011;10510;47.942;9.442;2022-09-16T08:29:29;12.27;;;9.63;;
11486;SDS011;10510;47.942;9.442;2022-09-16T08:31:29;17.38;;;10.43;;
11486;SDS011;10510;47.942;9.442;2022-09-16T08:33:30;15.25;;;9.88;;
11486;SDS011;10510;47.942;9.442;2022-09-16T08:35:30;15.80;;;11.02;;
11486;SDS011;10510;47.942;9.442;2022-09-16T08:37:30;15.55;;;11.20;;
11486;SDS011;10510;47.942;9.442;2022-09-16T08:39:31;16.45;;;11.38;;
11486;SDS011;10510;47.942;9.442;2022-09-16T08:46:45;17.08;;;11.52;;
11486;SDS011;10510;47.942;9.442;2022-09-16T08:51:00;17.65;;;10.88;;
11486;SDS011;10510;47.942;9.442;2022-09-16T08:53:02;17.52;;;12.35;;
11486;SDS011;10510;47.942;9.442;2022-09-16T08:55:11;13.05;;;9.77;;
11486;SDS011;10510;47.942;9.442;2022-09-16T08:57:21;16.77;;;11.07;;
11486;SDS011;10510;47.942;9.442;2022-09-16T08:59:24;16.47;;;10.53;;
11486;SDS011;10510;47.942;9.442;2022-09-16T09:01:41;14.32;;;10.85;;
11486;SDS011;10510;47.942;9.442;2022-09-16T09:03:48;13.37;;;10.23;;
11486;SDS011;10510;47.942;9.442;2022-09-16T09:05:49;18.52;;;10.38;;
11486;SDS011;10510;47.942;9.442;2022-09-16T09:22:12;13.45;;;9.27;;
11486;SDS011;10510;47.942;9.442;2022-09-16T09:27:15;16.25;;;9.98;;
11486;SDS011;10510;47.942;9.442;2022-09-16T09:29:26;13.05;;;9.82;;
11486;SDS011;10510;47.942;9.442;2022-09-16T09:31:39;13.18;;;10.05;;
11486;SDS011;10510;47.942;9.442;2022-09-16T09:36:44;14.40;;;10.15;;
11486;SDS011;10510;47.942;9.442;2022-09-16T09:39:07;14.45;;;9.25;;
11486;SDS011;10510;47.942;9.442;2022-09-16T09:41:16;28.42;;;10.65;;
11486;SDS011;10510;47.942;9.442;2022-09-16T09:47:53;14.77;;;9.82;;
11486;SDS011;10510;47.942;9.442;2022-09-16T09:54:31;20.92;;;10.35;;
11486;SDS011;10510;47.942;9.442;2022-09-16T09:56:35;15.77;;;10.32;;
11486;SDS011;10510;47.942;9.442;2022-09-16T09:58:57;17.67;;;11.05;;
11486;SDS011;10510;47.942;9.442;2022-09-16T10:01:05;17.52;;;10.82;;
11486;SDS011;10510;47.942;9.442;2022-09-16T10:03:09;14.18;;;9.60;;
11486;SDS011;10510;47.942;9.442;2022-09-16T10:05:22;14.10;;;10.23;;
11486;SDS011;10510;47.942;9.442;2022-09-16T10:07:26;15.18;;;10.20;;
11486;SDS011;10510;47.942;9.442;2022-09-16T10:09:27;20.90;;;11.68;;
11486;SDS011;10510;47.942;9.442;2022-09-16T10:11:29;11.52;;;3.83;;
11486;SDS011;10510;47.942;9.442;2022-09-16T10:13:30;5.85;;;2.20;;
11486;SDS011;10510;47.942;9.442;2022-09-16T10:15:31;2.83;;;0.75;;
11486;SDS011;10510;47.942;9.442;2022-09-16T10:17:33;4.03;;;1.27;;
11486;SDS011;10510;47.942;9.442;2022-09-16T10:19:35;3.08;;;1.40;;
11486;SDS011;10510;47.942;9.442;2022-09-16T10:21:43;2.75;;;1.38;;
11486;SDS011;10510;47.942;9.442;2022-09-16T10:23:55;1.93;;;1.43;;
11486;SDS011;10510;47.942;9.442;2022-09-16T10:26:03;4.78;;;1.67;;
11486;SDS011;10510;47.942;9.442;2022-09-16T10:28:21;3.03;;;1.50;;
11486;SDS011;10510;47.942;9.442;2022-09-16T10:30:24;3.90;;;1.20;;
11486;SDS011;10510;47.942;9.442;2022-09-16T10:32:27;1.98;;;1.30;;
11486;SDS011;10510;47.942;9.442;2022-09-16T10:34:37;3.22;;;1.55;;
11486;SDS011;10510;47.942;9.442;2022-09-16T10:36:40;2.85;;;1.88;;
11486;SDS011;10510;47.942;9.442;2022-09-16T10:38:42;3.25;;;1.50;;
11486;SDS011;10510;47.942;9.442;2022-09-16T10:40:53;2.83;;;1.65;;
11486;SDS011;10510;47.942;9.442;2022-09-16T10:43:01;7.32;;;2.00;;
11486;SDS011;10510;47.942;9.442;2022-09-16T10:45:09;1.77;;;1.50;;
11486;SDS011;10510;47.942;9.442;2022-09-16T10:47:23;2.65;;;1.30;;
11486;SDS011;10510;47.942;9.442;2022-09-16T10:49:36;4.40;;;1.27;;
11486;SDS011;10510;47.942;9.442;2022-09-16T10:51:39;3.22;;;1.70;;
11486;SDS011;10510;47.942;9.442;2022-09-16T10:53:39;2.40;;;1.55;;
11486;SDS011;10510;47.942;9.442;2022-09-16T10:55:57;2.50;;;1.88;;
11486;SDS011;10510;47.942;9.442;2022-09-16T10:58:06;1.83;;;1.38;;
11486;SDS011;10510;47.942;9.442;2022-09-16T11:02:20;2.92;;;2.30;;
11486;SDS011;10510;47.942;9.442;2022-09-16T11:09:46;2.28;;;1.98;;
11486;SDS011;10510;47.942;9.442;2022-09-16T11:12:05;3.42;;;1.88;;
11486;SDS011;10510;47.942;9.442;2022-09-16T11:14:31;3.10;;;1.95;;
11486;SDS011;10510;47.942;9.442;2022-09-16T11:18:55;3.20;;;1.60;;
11486;SDS011;10510;47.942;9.442;2022-09-16T11:25:56;4.05;;;2.25;;
11486;SDS011;10510;47.942;9.442;2022-09-16T11:30:19;1.88;;;1.60;;
11486;SDS011;10510;47.942;9.442;2022-09-16T11:32:32;3.50;;;1.50;;
11486;SDS011;10510;47.942;9.442;2022-09-16T11:35:12;2.20;;;1.48;;
11486;SDS011;10510;47.942;9.442;2022-09-16T11:49:21;2.90;;;1.70;;
11486;SDS011;10510;47.942;9.442;2022-09-16T11:56:15;2.90;;;2.10;;
11486;SDS011;10510;47.942;9.442;2022-09-16T11:58:27;22.23;;;12.82;;
11486;SDS011;10510;47.942;9.442;2022-09-16T12:00:43;4.22;;;2.00;;
11486;SDS011;10510;47.942;9.442;2022-09-16T12:02:51;6.07;;;2.45;;
11486;SDS011;10510;47.942;9.442;2022-09-16T12:05:02;2.83;;;1.60;;
11486;SDS011;10510;47.942;9.442;2022-09-16T12:07:28;5.25;;;2.92;;
11486;SDS011;10510;47.942;9.442;2022-09-16T12:09:43;4.05;;;2.35;;
11486;SDS011;10510;47.942;9.442;2022-09-16T12:11:50;8.90;;;4.70;;
11486;SDS011;10510;47.942;9.442;2022-09-16T12:16:26;4.90;;;3.65;;
11486;SDS011;10510;47.942;9.442;2022-09-16T12:18:46;5.95;;;5.35;;
11486;SDS011;10510;47.942;9.442;2022-09-16T12:20:56;10.50;;;9.40;;
11486;SDS011;10510;47.942;9.442;2022-09-16T12:25:14;4.97;;;4.30;;
11486;SDS011;10510;47.942;9.442;2022-09-16T12:27:27;4.85;;;3.15;;
11486;SDS011;10510;47.942;9.442;2022-09-16T12:29:39;5.30;;;3.20;;
11486;SDS011;10510;47.942;9.442;2022-09-16T12:31:49;4.00;;;3.15;;
11486;SDS011;10510;47.942;9.442;2022-09-16T12:33:57;5.32;;;3.40;;
11486;SDS011;10510;47.942;9.442;2022-09-16T12:36:16;5.50;;;4.40;;
11486;SDS011;10510;47.942;9.442;2022-09-16T12:38:21;4.80;;;3.78;;
11486;SDS011;10510;47.942;9.442;2022-09-16T12:40:23;8.85;;;4.00;;
11486;SDS011;10510;47.942;9.442;2022-09-16T12:57:40;5.97;;;4.47;;
11486;SDS011;10510;47.942;9.442;2022-09-16T13:02:15;8.40;;;5.72;;
11486;SDS011;10510;47.942;9.442;2022-09-16T13:04:23;5.28;;;4.05;;
11486;SDS011;10510;47.942;9.442;2022-09-16T13:06:50;4.60;;;4.03;;
11486;SDS011;10510;47.942;9.442;2022-09-16T13:08:52;6.55;;;4.30;;
11486;SDS011;10510;47.942;9.442;2022-09-16T13:10:54;7.78;;;4.55;;
11486;SDS011;10510;47.942;9.442;2022-09-16T13:12:58;6.28;;;4.20;;
11486;SDS011;10510;47.942;9.442;2022-09-16T13:15:00;7.53;;;4.30;;
11486;SDS011;10510;47.942;9.442;2022-09-16T13:17:04;8.32;;;4.72;;
11486;SDS011;10510;47.942;9.442;2022-09-16T13:21:24;6.78;;;4.15;;
11486;SDS011;10510;47.942;9.442;2022-09-16T13:23:29;5.63;;;4.80;;
11486;SDS011;10510;47.942;9.442;2022-09-16T13:25:35;7.68;;;4.38;;
11486;SDS011;10510;47.942;9.442;2022-09-16T13:32:23;9.13;;;4.35;;
11486;SDS011;10510;47.942;9.442;2022-09-16T13:34:59;11.55;;;4.15;;
11486;SDS011;10510;47.942;9.442;2022-09-16T13:37:00;9.27;;;4.45;;
11486;SDS011;10510;47.942;9.442;2022-09-16T13:39:02;8.60;;;4.20;;
11486;SDS011;10510;47.942;9.442;2022-09-16T13:41:05;5.22;;;4.13;;
11486;SDS011;10510;47.942;9.442;2022-09-16T13:47:35;5.55;;;4.43;;
11486;SDS011;10510;47.942;9.442;2022-09-16T13:49:46;9.00;;;4.55;;
11486;SDS011;10510;47.942;9.442;2022-09-16T13:51:51;7.00;;;5.25;;
11486;SDS011;10510;47.942;9.442;2022-09-16T13:53:52;8.73;;;5.40;;
11486;SDS011;10510;47.942;9.442;2022-09-16T13:55:54;6.05;;;5.15;;
11486;SDS011;10510;47.942;9.442;2022-09-16T13:58:08;12.15;;;4.25;;
11486;SDS011;10510;47.942;9.442;2022-09-16T14:00:19;5.78;;;4.53;;
11486;SDS011;10510;47.942;9.442;2022-09-16T14:02:30;6.60;;;4.35;;
11486;SDS011;10510;47.942;9.442;2022-09-16T14:07:16;6.85;;;5.20;;
11486;SDS011;10510;47.942;9.442;2022-09-16T14:11:58;8.45;;;5.18;;
11486;SDS011;10510;47.942;9.442;2022-09-16T14:14:08;8.88;;;4.78;;
11486;SDS011;10510;47.942;9.442;2022-09-16T14:16:22;10.18;;;5.10;;
11486;SDS011;10510;47.942;9.442;2022-09-16T14:18:27;9.02;;;4.00;;
11486;SDS011;10510;47.942;9.442;2022-09-16T14:20:31;4.57;;;3.50;;
11486;SDS011;10510;47.942;9.442;2022-09-16T14:22:33;5.40;;;4.05;;
11486;SDS011;10510;47.942;9.442;2022-09-16T14:24:34;7.63;;;5.10;;
11486;SDS011;10510;47.942;9.442;2022-09-16T14:26:37;17.52;;;8.88;;
11486;SDS011;10510;47.942;9.442;2022-09-16T14:28:37;11.90;;;7.47;;
11486;SDS011;10510;47.942;9.442;2022-09-16T14:30:43;6.85;;;4.70;;
11486;SDS011;10510;47.942;9.442;2022-09-16T14:32:57;7.32;;;5.00;;
11486;SDS011;10510;47.942;9.442;2022-09-16T14:34:58;9.23;;;5.03;;
11486;SDS011;10510;47.942;9.442;2022-09-16T14:37:02;7.63;;;5.63;;
11486;SDS011;10510;47.942;9.442;2022-09-16T14:41:07;7.53;;;6.13;;
11486;SDS011;10510;47.942;9.442;2022-09-16T14:43:11;8.63;;;6.22;;
11486;SDS011;10510;47.942;9.442;2022-09-16T14:45:16;7.82;;;5.55;;
11486;SDS011;10510;47.942;9.442;2022-09-16T14:49:21;10.40;;;5.80;;
11486;SDS011;10510;47.942;9.442;2022-09-16T14:51:22;7.93;;;5.50;;